Beckley, WV

7:22 PM EST on January 23, 2017 (GMT -0500)
Raleigh County Memorial | | Change Station
Active Advisory: Areal Flood Warning

Elev 2503 ft 37.79 °N, 81.12 °W | Updated 6 minutes ago

Rain
Rain
40 °F
Feels Like 40 °F
N
0
Wind Variable Wind from North

Today
High -- | Low -- °F
--% Chance of Precip.
Yesterday
High -- | Low -- °F
Precip. -- in
Pressure 29.46 in
Visibility 3.0 miles
Clouds Few 800 ft
Overcast 1400 ft
Dew Point 38 °F
Humidity 93%
Rainfall 1.45 in
Snow Depth Not available.
7:35 AM 5:38 PM
Waning Crescent, 15% visible
SPECI KBKW 240016Z AUTO 00000KT 3SM -RA BR FEW008 OVC014 04/03 A2946 RMK AO2 VIS 1 1/2 RWY19 RAB2357 CIG 003 RWY19 P0001 T00440033
Pressure 29.46 in
Visibility 3.0 miles
Clouds Few 800 ft
Overcast 1400 ft
Dew Point 38 °F
Humidity 93%
Rainfall 1.45 in
Snow Depth Not available.
7:35 AM 5:38 PM
Waning Crescent, 15% visible
SPECI KBKW 240016Z AUTO 00000KT 3SM -RA BR FEW008 OVC014 04/03 A2946 RMK AO2 VIS 1 1/2 RWY19 RAB2357 CIG 003 RWY19 P0001 T00440033

Get Your Daily Forecast Email!

Thanks for signing up!

Be on the lookout for a verification email in your inbox.

You'll start receiving the daily forecast at 8 AM.

×

10-Day Weather Forecast

Almanac

Astronomy

Jan. 23, 2017 Rise Set
Actual Time
Civil Twilight
Nautical Twilight
Astronomical Twilight
Moon
Length of Visible Light
Length of Day
Tomorrow will be .
, % of the Moon is Illuminated

Today's Extremes

State Highs State Lows

Community

WunderPhotos

Upload Photos

1,962,540 photos uploaded!

WunderBlog® & News

Nearby

Air Quality

  Air Quality AQ Index Pollutant
Not available.

Snow Depth

Station Depth Elevation

Earthquake Activity

City Distance Mag. Time & Date
Minimum magnitude displayed is 2.5.

Coastal Water Temperatures

Place Temperature

Stations

Nearby Weather Stations

Station Location Temp. Windchill Dew Point Humidity Wind Precip. Elev Updated Type
                   

Watches & Warnings

Areal Flood Warning
Issued: 6:00 PM EST Jan. 23, 2017 – National Weather Service

... A Flood Warning remains in effect until 745 PM EST for
northwestern Raleigh and southwestern Fayette counties...

At 557 PM EST, some light rain continues across the area. With 1 to
1.5 inches of rain Haven already fallen today, some large creeks
will flood. Emergency management has reported that Paint Creek was
causing problems in the Pax area.

Some locations that will experience flooding include...
Bradley, Prosperity, Pax, Glen Daniel, Artie, Naoma, Bolt
and Arnett.

Precautionary/preparedness actions...

Turn around, don't drown when encountering flooded roads. Most flood
deaths occur in vehicles.

Please report severe weather to the National Weather Service by
calling toll free, 800 401 9535, when you can do so safely.

You may also report severe weather by posting your report to the
Charleston West Virginia National Weather Service facebook Page, or
by using the twitter hashtag, nwsrlx.


Lat... Lon 3786 8155 3799 8135 3794 8120 3782 8119
      3771 8138


25